createdAt,value
2023-01-19T00:01:10.052Z,16.80
2023-01-19T00:03:38.439Z,15.50
2023-01-19T00:06:07.773Z,16.17
2023-01-19T00:08:36.755Z,15.97
2023-01-19T00:11:05.346Z,20.13
2023-01-19T00:13:34.550Z,16.53
2023-01-19T00:16:04.530Z,13.17
2023-01-19T00:18:32.761Z,13.80
2023-01-19T00:21:01.212Z,17.07
2023-01-19T00:23:29.665Z,14.63
2023-01-19T00:25:59.603Z,25.27
2023-01-19T00:28:27.953Z,18.00
2023-01-19T00:30:56.627Z,19.10
2023-01-19T00:33:26.302Z,17.00
2023-01-19T00:35:56.517Z,19.20
2023-01-19T00:38:24.771Z,14.90
2023-01-19T00:40:52.994Z,19.70
2023-01-19T00:43:21.606Z,17.77
2023-01-19T00:45:50.170Z,18.63
2023-01-19T00:48:18.414Z,14.13
2023-01-19T00:50:49.315Z,14.03
2023-01-19T00:53:17.822Z,18.20
2023-01-19T00:55:46.199Z,19.83
2023-01-19T00:58:14.762Z,15.83
2023-01-19T01:00:43.130Z,15.17
2023-01-19T01:03:11.617Z,15.03
2023-01-19T01:05:42.380Z,19.90
2023-01-19T01:08:12.259Z,14.27
2023-01-19T01:10:40.611Z,19.87
2023-01-19T01:13:21.029Z,16.23
2023-01-19T01:15:52.047Z,13.77
2023-01-19T01:18:21.781Z,21.77
2023-01-19T01:20:50.328Z,14.80
2023-01-19T01:23:22.780Z,19.73
2023-01-19T01:25:51.304Z,23.40
2023-01-19T01:28:19.578Z,17.83
2023-01-19T01:30:48.066Z,16.80
2023-01-19T01:33:40.562Z,18.60
2023-01-19T01:36:05.261Z,18.90
2023-01-19T01:38:35.319Z,18.93
2023-01-19T01:41:03.679Z,16.77
2023-01-19T01:43:44.980Z,16.53
2023-01-19T01:46:15.603Z,25.20
2023-01-19T01:48:47.974Z,21.03
2023-01-19T01:51:27.415Z,18.63
2023-01-19T01:54:08.266Z,19.47
2023-01-19T01:56:38.876Z,18.50
2023-01-19T01:59:12.473Z,23.37
2023-01-19T02:01:59.527Z,15.43
2023-01-19T02:04:29.495Z,15.40
2023-01-19T02:07:15.602Z,21.23
2023-01-19T02:10:03.134Z,18.53
2023-01-19T02:12:49.019Z,19.83
2023-01-19T02:15:18.714Z,18.07
2023-01-19T02:17:47.354Z,17.37
2023-01-19T02:20:16.204Z,20.47
2023-01-19T02:22:49.263Z,20.83
2023-01-19T02:25:20.600Z,16.37
2023-01-19T02:27:50.427Z,22.10
2023-01-19T02:30:19.844Z,15.27
2023-01-19T02:32:48.241Z,24.23
2023-01-19T02:35:17.227Z,21.20
2023-01-19T02:37:46.222Z,18.40
2023-01-19T02:40:20.079Z,18.53
2023-01-19T02:42:51.764Z,19.60
2023-01-19T02:45:22.954Z,16.80
2023-01-19T02:47:53.543Z,19.27
2023-01-19T02:50:46.583Z,24.27
2023-01-19T02:53:31.214Z,20.17
2023-01-19T02:56:08.458Z,18.77
2023-01-19T02:58:47.372Z,20.97
2023-01-19T03:01:23.233Z,22.27
2023-01-19T03:03:57.157Z,27.50
2023-01-19T03:06:37.336Z,19.13
2023-01-19T03:09:14.172Z,18.93
2023-01-19T03:11:48.429Z,22.17
2023-01-19T03:14:24.311Z,20.63
2023-01-19T03:16:56.367Z,16.60
2023-01-19T03:19:30.213Z,18.70
2023-01-19T03:22:01.084Z,18.37
2023-01-19T03:24:36.889Z,25.30
2023-01-19T03:27:12.578Z,25.50
2023-01-19T03:29:46.413Z,18.53
2023-01-19T03:32:19.370Z,21.17
2023-01-19T03:34:52.617Z,20.10
2023-01-19T03:37:22.760Z,18.13
2023-01-19T03:39:51.730Z,17.50
2023-01-19T03:42:21.618Z,17.90
2023-01-19T03:44:55.471Z,19.13
2023-01-19T03:47:26.594Z,22.67
2023-01-19T03:49:57.029Z,21.00
2023-01-19T03:52:30.327Z,21.13
2023-01-19T03:54:58.735Z,16.70
2023-01-19T03:57:27.178Z,21.77
2023-01-19T03:59:57.027Z,22.37
2023-01-19T04:02:26.033Z,30.20
2023-01-19T04:04:54.319Z,21.97
2023-01-19T04:07:22.642Z,24.73
2023-01-19T04:09:51.122Z,17.57
2023-01-19T04:12:19.351Z,21.97
2023-01-19T04:14:48.697Z,22.00
2023-01-19T04:18:00.919Z,20.63
2023-01-19T04:20:52.812Z,18.47
2023-01-19T04:23:21.363Z,27.27
2023-01-19T04:25:49.589Z,23.40
2023-01-19T04:28:18.249Z,21.73
2023-01-19T04:30:46.543Z,20.47
2023-01-19T04:33:16.092Z,23.90
2023-01-19T04:35:45.700Z,23.63
2023-01-19T04:38:14.115Z,26.47
2023-01-19T04:40:42.494Z,19.10
2023-01-19T04:43:12.442Z,22.80
2023-01-19T04:45:40.849Z,26.17
2023-01-19T04:48:09.489Z,22.97
2023-01-19T04:50:39.741Z,25.73
2023-01-19T04:53:08.115Z,22.47
2023-01-19T04:55:38.168Z,26.10
2023-01-19T04:58:06.507Z,25.70
2023-01-19T05:00:34.879Z,27.90
2023-01-19T05:03:09.258Z,31.73
2023-01-19T05:05:39.506Z,26.00
2023-01-19T05:08:07.865Z,25.57
2023-01-19T05:10:36.638Z,27.93
2023-01-19T05:13:05.719Z,32.17
2023-01-19T05:15:39.550Z,29.57
2023-01-19T05:18:08.249Z,37.60
2023-01-19T05:20:36.437Z,37.80
2023-01-19T05:23:06.412Z,36.40
2023-01-19T05:25:34.863Z,36.40
2023-01-19T05:28:04.039Z,41.10
2023-01-19T05:30:32.395Z,40.55
2023-01-19T05:33:00.963Z,42.73
2023-01-19T05:35:35.533Z,45.33
2023-01-19T05:38:06.467Z,29.57
2023-01-19T05:40:34.652Z,27.50
2023-01-19T05:43:05.321Z,28.77
2023-01-19T05:45:34.301Z,31.60
2023-01-19T05:48:02.768Z,27.00
2023-01-19T05:50:32.849Z,34.77
2023-01-19T05:53:02.133Z,30.10
2023-01-19T05:55:32.605Z,31.43
2023-01-19T05:58:01.504Z,37.37
2023-01-19T06:00:30.404Z,32.90
2023-01-19T06:03:00.857Z,31.93
2023-01-19T06:05:29.383Z,37.93
2023-01-19T06:07:58.383Z,35.63
2023-01-19T06:10:26.630Z,46.83
2023-01-19T06:12:56.377Z,37.50
2023-01-19T06:15:25.083Z,34.97
2023-01-19T06:17:53.656Z,31.53
2023-01-19T06:20:22.102Z,32.43
2023-01-19T06:22:50.963Z,36.83
2023-01-19T06:25:19.240Z,31.63
2023-01-19T06:27:47.518Z,31.37
2023-01-19T06:30:17.801Z,41.63
2023-01-19T06:32:46.023Z,37.73
2023-01-19T06:35:14.608Z,29.23
2023-01-19T06:37:43.181Z,32.13
2023-01-19T06:40:14.502Z,32.80
2023-01-19T06:42:43.133Z,30.10
2023-01-19T06:45:12.153Z,32.27
2023-01-19T06:47:41.771Z,34.17
2023-01-19T06:50:11.432Z,29.23
2023-01-19T06:52:42.536Z,38.00
2023-01-19T06:55:12.556Z,33.13
2023-01-19T06:57:41.044Z,39.03
2023-01-19T07:00:11.839Z,37.57
2023-01-19T07:02:43.731Z,41.87
2023-01-19T07:05:14.529Z,36.53
2023-01-19T07:07:44.853Z,35.07
2023-01-19T07:10:15.894Z,43.70
2023-01-19T07:12:46.570Z,30.33
2023-01-19T07:15:15.357Z,42.57
2023-01-19T07:17:45.632Z,34.30
2023-01-19T07:20:15.176Z,39.50
2023-01-19T07:22:45.739Z,33.87
2023-01-19T07:25:14.384Z,40.93
2023-01-19T07:27:42.800Z,37.90
2023-01-19T07:30:16.348Z,38.40
2023-01-19T07:32:46.256Z,35.87
2023-01-19T07:35:14.528Z,39.07
2023-01-19T07:37:42.994Z,34.30
2023-01-19T07:40:12.504Z,44.27
2023-01-19T07:42:43.035Z,38.03
2023-01-19T07:45:12.051Z,42.83
2023-01-19T07:47:40.392Z,42.10
2023-01-19T07:50:12.436Z,32.00
2023-01-19T07:52:41.070Z,33.60
2023-01-19T07:55:10.295Z,40.87
2023-01-19T07:57:38.558Z,33.10
2023-01-19T08:00:08.864Z,38.13
2023-01-19T08:02:37.910Z,39.13
2023-01-19T08:05:07.142Z,39.20
2023-01-19T08:07:36.914Z,31.77
2023-01-19T08:10:08.373Z,32.30
2023-01-19T08:12:38.634Z,36.80
2023-01-19T08:15:08.152Z,41.07
2023-01-19T08:17:36.917Z,38.93
2023-01-19T08:20:06.699Z,32.87
2023-01-19T08:22:36.659Z,36.97
2023-01-19T08:25:05.373Z,36.80
2023-01-19T08:27:33.682Z,34.13
2023-01-19T08:30:01.994Z,30.13
2023-01-19T08:32:30.260Z,41.13
2023-01-19T08:34:59.038Z,36.60
2023-01-19T08:37:27.398Z,35.43
2023-01-19T08:39:56.980Z,31.10
2023-01-19T08:42:28.176Z,37.83
2023-01-19T08:44:58.346Z,30.70
2023-01-19T08:47:27.289Z,29.03
2023-01-19T08:49:55.548Z,33.20
2023-01-19T08:52:24.760Z,31.27
2023-01-19T08:54:53.069Z,34.10
2023-01-19T08:57:22.830Z,32.80
2023-01-19T08:59:51.108Z,35.37
2023-01-19T09:02:19.693Z,29.07
2023-01-19T09:04:48.084Z,37.63
2023-01-19T09:07:17.557Z,33.50
2023-01-19T09:09:46.026Z,33.10
2023-01-19T09:12:14.851Z,40.80
2023-01-19T09:14:44.437Z,29.07
2023-01-19T09:17:14.655Z,35.27
2023-01-19T09:19:43.061Z,33.63
2023-01-19T09:22:11.456Z,36.67
2023-01-19T09:24:40.135Z,38.17
2023-01-19T09:27:10.649Z,47.20
2023-01-19T09:29:41.840Z,42.50
2023-01-19T09:32:11.928Z,45.73
2023-01-19T09:34:40.424Z,45.13
2023-01-19T09:37:09.071Z,39.10
2023-01-19T09:39:38.112Z,48.10
2023-01-19T09:42:14.872Z,51.90
2023-01-19T09:44:45.866Z,46.43
2023-01-19T09:47:18.177Z,46.93
2023-01-19T09:49:51.644Z,47.70
2023-01-19T09:52:20.680Z,50.83
2023-01-19T09:54:54.817Z,47.57
2023-01-19T09:57:24.336Z,52.10
2023-01-19T09:59:58.043Z,55.80
2023-01-19T10:02:37.123Z,48.33
2023-01-19T10:05:15.548Z,49.63
2023-01-19T10:08:08.617Z,47.83
2023-01-19T10:10:38.095Z,54.57
2023-01-19T10:13:20.518Z,59.77
2023-01-19T10:15:57.661Z,64.13
2023-01-19T10:18:34.686Z,58.10
2023-01-19T10:21:07.780Z,60.93
2023-01-19T10:23:44.222Z,64.00
2023-01-19T10:26:20.062Z,65.43
2023-01-19T10:28:51.922Z,54.77
2023-01-19T10:31:25.185Z,67.00
2023-01-19T10:33:55.473Z,60.90
2023-01-19T10:36:28.984Z,59.90
2023-01-19T10:38:57.504Z,56.17
2023-01-19T10:41:29.307Z,53.37
2023-01-19T10:44:02.259Z,56.67
2023-01-19T10:46:38.179Z,59.37
2023-01-19T10:49:08.740Z,51.10
2023-01-19T10:51:48.782Z,59.30
2023-01-19T10:54:17.790Z,44.97
2023-01-19T10:56:53.032Z,44.07
2023-01-19T10:59:34.210Z,48.20
2023-01-19T11:02:21.404Z,50.90
2023-01-19T11:04:54.395Z,43.93
2023-01-19T11:07:24.651Z,49.17
2023-01-19T11:10:14.512Z,48.33
2023-01-19T11:12:44.106Z,47.83
2023-01-19T11:15:16.929Z,46.37
2023-01-19T11:17:48.373Z,46.53
2023-01-19T11:20:24.062Z,43.87
2023-01-19T11:23:06.543Z,48.67
2023-01-19T11:25:38.001Z,44.27
2023-01-19T11:28:06.818Z,41.37
2023-01-19T11:30:36.670Z,44.40
2023-01-19T11:33:07.332Z,40.17
2023-01-19T11:35:42.243Z,40.23
2023-01-19T11:38:20.258Z,35.73
2023-01-19T11:40:54.602Z,36.20
2023-01-19T11:43:25.597Z,36.07
2023-01-19T11:45:55.250Z,38.97
2023-01-19T11:48:30.497Z,39.93
2023-01-19T11:51:03.684Z,37.00
2023-01-19T11:53:35.228Z,35.67
2023-01-19T11:56:07.029Z,37.83
2023-01-19T11:58:43.302Z,36.03
2023-01-19T12:01:21.287Z,43.13
2023-01-19T12:03:56.395Z,37.77
2023-01-19T12:06:30.939Z,34.50
2023-01-19T12:09:03.132Z,39.07
2023-01-19T12:11:34.422Z,35.03
2023-01-19T12:14:04.203Z,35.97
2023-01-19T12:16:34.720Z,36.60
2023-01-19T12:19:05.493Z,35.27
2023-01-19T12:21:35.206Z,41.50
2023-01-19T12:24:13.691Z,39.63
2023-01-19T12:26:50.551Z,33.47
2023-01-19T12:29:22.071Z,40.30
2023-01-19T12:32:21.130Z,32.90
2023-01-19T12:34:52.176Z,32.63
2023-01-19T12:37:41.763Z,38.93
2023-01-19T12:40:26.098Z,34.53
2023-01-19T12:43:01.821Z,34.23
2023-01-19T12:45:34.760Z,33.03
2023-01-19T12:48:05.085Z,34.87
2023-01-19T12:50:37.991Z,35.80
2023-01-19T12:53:18.036Z,35.43
2023-01-19T12:55:47.646Z,33.43
2023-01-19T12:58:19.089Z,32.87
2023-01-19T13:00:49.288Z,31.50
2023-01-19T13:03:47.234Z,36.80
2023-01-19T13:06:15.462Z,31.03
2023-01-19T13:09:02.090Z,37.47
2023-01-19T13:11:34.309Z,35.20
2023-01-19T13:14:35.602Z,34.83
2023-01-19T13:17:22.369Z,41.23
2023-01-19T13:20:02.207Z,39.37
2023-01-19T13:23:18.678Z,34.63
2023-01-19T13:25:53.225Z,34.27
2023-01-19T13:28:36.146Z,34.17
2023-01-19T13:31:05.309Z,34.73
2023-01-19T13:33:43.314Z,32.80
2023-01-19T13:36:26.253Z,33.17
2023-01-19T13:38:55.947Z,30.50
2023-01-19T13:41:29.759Z,32.30
2023-01-19T13:44:02.875Z,31.93
2023-01-19T13:46:33.335Z,34.53
2023-01-19T13:49:05.449Z,33.77
2023-01-19T13:51:33.815Z,31.83
2023-01-19T13:54:02.892Z,33.43
2023-01-19T13:56:32.936Z,33.13
2023-01-19T13:59:12.681Z,35.47
2023-01-19T14:01:43.670Z,38.47
2023-01-19T14:04:31.762Z,35.47
2023-01-19T14:07:02.672Z,31.40
2023-01-19T14:09:31.351Z,27.60
2023-01-19T14:12:14.541Z,33.60
2023-01-19T14:14:44.101Z,32.70
2023-01-19T14:17:27.758Z,30.93
2023-01-19T14:19:57.997Z,32.17
2023-01-19T14:22:43.140Z,38.73
2023-01-19T14:25:29.161Z,31.43
2023-01-19T14:28:39.378Z,32.03
2023-01-19T14:31:21.926Z,32.23
2023-01-19T14:33:52.089Z,35.30
2023-01-19T14:36:34.223Z,29.00
2023-01-19T14:39:04.059Z,33.07
2023-01-19T14:41:39.017Z,32.87
2023-01-19T14:44:12.380Z,31.73
2023-01-19T14:46:52.050Z,28.13
2023-01-19T14:49:25.785Z,26.63
2023-01-19T14:51:54.092Z,25.60
2023-01-19T14:54:31.054Z,25.67
2023-01-19T14:56:59.311Z,28.73
2023-01-19T14:59:28.958Z,33.10
2023-01-19T15:01:57.810Z,32.03
2023-01-19T15:04:26.376Z,30.37
2023-01-19T15:06:59.493Z,33.23
2023-01-19T15:09:27.944Z,31.93
2023-01-19T15:11:56.696Z,30.03
2023-01-19T15:14:25.366Z,32.33
2023-01-19T15:16:55.460Z,29.53
2023-01-19T15:19:23.741Z,32.70
2023-01-19T15:21:52.447Z,31.93
2023-01-19T15:24:21.151Z,34.87
2023-01-19T15:26:49.456Z,31.67
2023-01-19T15:29:23.469Z,36.40
2023-01-19T15:31:51.984Z,33.87
2023-01-19T15:34:21.672Z,29.43
2023-01-19T15:36:50.316Z,30.83
2023-01-19T15:39:18.689Z,27.57
2023-01-19T15:41:47.024Z,32.80
2023-01-19T15:44:15.692Z,31.47
2023-01-19T15:46:46.150Z,34.03
2023-01-19T15:49:15.457Z,34.63
2023-01-19T15:51:45.727Z,32.17
2023-01-19T15:54:15.411Z,38.50
2023-01-19T15:56:43.840Z,32.97
2023-01-19T15:59:12.328Z,35.73
2023-01-19T16:01:41.773Z,40.43
2023-01-19T16:04:11.873Z,43.60
2023-01-19T16:06:40.364Z,29.77
2023-01-19T16:09:11.677Z,32.07
2023-01-19T16:11:40.094Z,33.53
2023-01-19T16:14:08.619Z,35.97
2023-01-19T16:16:37.046Z,37.10
2023-01-19T16:19:05.428Z,32.53
2023-01-19T16:21:33.747Z,36.20
2023-01-19T16:24:02.138Z,38.30
2023-01-19T16:26:34.557Z,37.00
2023-01-19T16:29:07.868Z,36.10
2023-01-19T16:31:36.709Z,40.40
2023-01-19T16:34:05.319Z,36.90
2023-01-19T16:36:36.174Z,41.63
2023-01-19T16:39:07.712Z,37.70
2023-01-19T16:41:37.791Z,38.33
2023-01-19T16:44:06.504Z,40.20
2023-01-19T16:46:37.522Z,46.77
2023-01-19T16:49:08.601Z,38.37
2023-01-19T16:51:36.799Z,41.47
2023-01-19T16:54:05.320Z,50.77
2023-01-19T16:56:33.820Z,43.33
2023-01-19T16:59:03.406Z,42.60
2023-01-19T17:01:31.820Z,42.13
2023-01-19T17:04:01.370Z,40.33
2023-01-19T17:06:30.217Z,45.67
2023-01-19T17:08:58.877Z,39.77
2023-01-19T17:11:28.902Z,40.30
2023-01-19T17:14:00.467Z,37.87
2023-01-19T17:16:32.027Z,37.07
2023-01-19T17:19:02.356Z,43.43
2023-01-19T17:21:31.204Z,49.00
2023-01-19T17:24:00.131Z,41.67
2023-01-19T17:26:31.134Z,49.27
2023-01-19T17:29:00.356Z,46.63
2023-01-19T17:31:32.234Z,44.07
2023-01-19T17:34:01.656Z,44.27
2023-01-19T17:36:31.489Z,48.63
2023-01-19T17:39:01.397Z,43.40
2023-01-19T17:41:31.946Z,47.20
2023-01-19T17:44:01.855Z,37.33
2023-01-19T17:46:31.961Z,42.67
2023-01-19T17:49:01.888Z,42.77
2023-01-19T17:51:31.174Z,40.27
2023-01-19T17:54:00.423Z,44.13
2023-01-19T17:56:33.111Z,42.67
2023-01-19T17:59:01.553Z,44.43
2023-01-19T18:01:33.399Z,38.77
2023-01-19T18:04:02.680Z,43.20
2023-01-19T18:06:30.983Z,42.13
2023-01-19T18:08:59.894Z,40.80
2023-01-19T18:11:28.784Z,45.23
2023-01-19T18:13:57.247Z,39.57
2023-01-19T18:16:27.598Z,42.00
2023-01-19T18:18:58.561Z,45.67
2023-01-19T18:21:29.001Z,46.13
2023-01-19T18:24:02.159Z,44.13
2023-01-19T18:26:32.262Z,40.47
2023-01-19T18:29:00.682Z,42.40
2023-01-19T18:31:29.297Z,42.27
2023-01-19T18:33:59.165Z,45.87
2023-01-19T18:36:27.591Z,44.17
2023-01-19T18:38:55.888Z,50.47
2023-01-19T18:41:24.265Z,64.30
2023-01-19T18:43:54.562Z,59.30
2023-01-19T18:46:22.867Z,53.63
2023-01-19T18:48:51.990Z,46.30
2023-01-19T18:51:21.707Z,50.90
2023-01-19T18:53:49.967Z,49.53
2023-01-19T18:56:18.468Z,50.03
2023-01-19T18:58:47.296Z,51.50
2023-01-19T19:01:21.609Z,51.30
2023-01-19T19:03:50.098Z,54.50
2023-01-19T19:06:20.682Z,57.73
2023-01-19T19:08:51.831Z,56.10
2023-01-19T19:11:21.190Z,58.00
2023-01-19T19:13:54.121Z,53.33
2023-01-19T19:16:22.405Z,52.60
2023-01-19T19:18:51.098Z,53.00
2023-01-19T19:21:24.103Z,51.20
2023-01-19T19:23:55.541Z,59.20
2023-01-19T19:26:25.242Z,57.03
2023-01-19T19:28:53.407Z,51.27
2023-01-19T19:31:25.587Z,61.53
2023-01-19T19:33:54.736Z,57.53
2023-01-19T19:36:24.602Z,69.87
2023-01-19T19:38:54.529Z,66.80
2023-01-19T19:41:24.810Z,71.43
2023-01-19T19:43:53.084Z,73.03
2023-01-19T19:46:24.426Z,82.17
2023-01-19T19:48:53.573Z,68.23
2023-01-19T19:51:23.754Z,75.27
2023-01-19T19:53:54.505Z,74.03
2023-01-19T19:56:24.342Z,88.63
2023-01-19T19:58:55.058Z,83.30
2023-01-19T20:01:27.300Z,87.80
2023-01-19T20:03:57.381Z,105.67
2023-01-19T20:06:27.712Z,98.07
2023-01-19T20:08:58.058Z,97.87
2023-01-19T20:11:28.787Z,96.63
2023-01-19T20:13:57.221Z,104.63
2023-01-19T20:16:25.923Z,106.77
2023-01-19T20:18:55.287Z,107.10
2023-01-19T20:21:26.122Z,104.87
2023-01-19T20:23:57.824Z,104.70
2023-01-19T20:26:28.344Z,108.73
2023-01-19T20:29:00.153Z,95.80
2023-01-19T20:31:30.295Z,89.33
2023-01-19T20:34:01.838Z,89.00
2023-01-19T20:36:30.206Z,92.73
2023-01-19T20:39:00.339Z,99.27
2023-01-19T20:41:30.157Z,85.27
2023-01-19T20:43:58.521Z,93.50
2023-01-19T20:46:26.811Z,85.10
2023-01-19T20:48:55.360Z,75.37
2023-01-19T20:51:25.797Z,74.57
2023-01-19T20:53:54.193Z,72.53
2023-01-19T20:56:24.055Z,63.90
2023-01-19T20:58:52.341Z,61.63
2023-01-19T21:01:23.560Z,62.27
2023-01-19T21:03:53.083Z,56.67
2023-01-19T21:06:22.570Z,54.63
2023-01-19T21:08:50.815Z,52.37
2023-01-19T21:11:20.948Z,59.70
2023-01-19T21:13:55.393Z,55.77
2023-01-19T21:16:24.854Z,50.83
2023-01-19T21:18:53.632Z,52.10
2023-01-19T21:21:30.388Z,49.23
2023-01-19T21:24:00.907Z,58.27
2023-01-19T21:26:30.940Z,49.53
2023-01-19T21:29:02.040Z,55.50
2023-01-19T21:31:32.791Z,55.17
2023-01-19T21:34:01.271Z,54.90
2023-01-19T21:36:29.696Z,55.50
2023-01-19T21:39:00.756Z,52.77
2023-01-19T21:41:31.492Z,58.00
2023-01-19T21:44:01.607Z,48.73
2023-01-19T21:46:32.199Z,52.50
2023-01-19T21:49:01.988Z,55.43
2023-01-19T21:51:33.772Z,59.37
2023-01-19T21:54:02.925Z,59.77
2023-01-19T21:56:31.807Z,57.87
2023-01-19T21:59:03.744Z,51.53
2023-01-19T22:01:33.124Z,52.73
2023-01-19T22:04:01.589Z,55.77
2023-01-19T22:06:30.543Z,54.53
2023-01-19T22:09:00.622Z,52.70
2023-01-19T22:11:30.103Z,64.23
2023-01-19T22:13:59.718Z,49.23
2023-01-19T22:16:30.564Z,51.10
2023-01-19T22:19:04.147Z,52.57
2023-01-19T22:21:34.083Z,54.70
2023-01-19T22:24:04.599Z,58.90
2023-01-19T22:26:34.387Z,51.87
2023-01-19T22:29:04.812Z,53.23
2023-01-19T22:31:34.988Z,56.83
2023-01-19T22:34:03.422Z,65.90
2023-01-19T22:36:34.057Z,54.23
2023-01-19T22:39:05.161Z,55.63
2023-01-19T22:41:35.296Z,56.27
2023-01-19T22:44:06.041Z,62.50
2023-01-19T22:46:38.032Z,67.97
2023-01-19T22:49:08.350Z,73.17
2023-01-19T22:51:37.517Z,65.03
2023-01-19T22:54:06.142Z,66.40
2023-01-19T22:56:35.847Z,71.43
2023-01-19T22:59:05.917Z,67.97
2023-01-19T23:01:38.883Z,68.83
2023-01-19T23:04:09.436Z,67.13
2023-01-19T23:06:39.456Z,64.13
2023-01-19T23:09:12.087Z,68.77
2023-01-19T23:11:43.530Z,67.90
2023-01-19T23:14:15.059Z,63.97
2023-01-19T23:16:45.251Z,69.97
2023-01-19T23:19:14.031Z,66.47
2023-01-19T23:21:42.661Z,68.60
2023-01-19T23:24:11.869Z,72.27
2023-01-19T23:26:40.344Z,65.87
2023-01-19T23:29:11.312Z,69.27
2023-01-19T23:31:46.103Z,63.37
2023-01-19T23:34:17.008Z,68.33
2023-01-19T23:36:45.938Z,65.57
2023-01-19T23:39:15.989Z,57.27
2023-01-19T23:41:44.343Z,68.77
2023-01-19T23:44:17.323Z,71.83
2023-01-19T23:46:47.202Z,68.67
2023-01-19T23:49:18.333Z,63.77
2023-01-19T23:51:46.610Z,75.43
2023-01-19T23:54:14.795Z,61.00
2023-01-19T23:56:43.343Z,65.87
2023-01-19T23:59:13.226Z,69.03
